sensor_id;sensor_type;location;lat;lon;timestamp;P1;durP1;ratioP1;P2;durP2;ratioP2
39176;SDS011;24904;52.208;21.192;2022-07-23T00:04:27;16.20;;;13.90;;
39176;SDS011;24904;52.208;21.192;2022-07-23T00:09:30;22.90;;;13.50;;
39176;SDS011;24904;52.208;21.192;2022-07-23T00:14:33;18.40;;;13.50;;
39176;SDS011;24904;52.208;21.192;2022-07-23T00:19:36;16.60;;;13.80;;
39176;SDS011;24904;52.208;21.192;2022-07-23T00:24:39;20.40;;;12.90;;
39176;SDS011;24904;52.208;21.192;2022-07-23T00:29:42;18.70;;;13.60;;
39176;SDS011;24904;52.208;21.192;2022-07-23T00:34:45;18.60;;;14.70;;
39176;SDS011;24904;52.208;21.192;2022-07-23T00:39:49;21.70;;;17.50;;
39176;SDS011;24904;52.208;21.192;2022-07-23T00:44:52;21.80;;;15.60;;
39176;SDS011;24904;52.208;21.192;2022-07-23T00:49:55;22.80;;;16.90;;
39176;SDS011;24904;52.208;21.192;2022-07-23T00:54:58;23.50;;;15.90;;
39176;SDS011;24904;52.208;21.192;2022-07-23T01:00:01;19.40;;;15.20;;
39176;SDS011;24904;52.208;21.192;2022-07-23T01:05:07;18.80;;;15.50;;
39176;SDS011;24904;52.208;21.192;2022-07-23T01:10:10;22.40;;;16.80;;
39176;SDS011;24904;52.208;21.192;2022-07-23T01:15:32;20.90;;;16.00;;
39176;SDS011;24904;52.208;21.192;2022-07-23T01:20:37;19.40;;;15.10;;
39176;SDS011;24904;52.208;21.192;2022-07-23T01:25:48;20.20;;;15.20;;
39176;SDS011;24904;52.208;21.192;2022-07-23T01:30:54;21.40;;;16.60;;
39176;SDS011;24904;52.208;21.192;2022-07-23T01:35:57;23.30;;;16.40;;
39176;SDS011;24904;52.208;21.192;2022-07-23T01:41:01;24.00;;;16.80;;
39176;SDS011;24904;52.208;21.192;2022-07-23T01:46:06;22.40;;;17.50;;
39176;SDS011;24904;52.208;21.192;2022-07-23T02:01:22;19.60;;;16.90;;
39176;SDS011;24904;52.208;21.192;2022-07-23T02:06:25;25.60;;;17.40;;
39176;SDS011;24904;52.208;21.192;2022-07-23T02:11:28;24.10;;;17.20;;
39176;SDS011;24904;52.208;21.192;2022-07-23T02:16:31;21.90;;;17.40;;
39176;SDS011;24904;52.208;21.192;2022-07-23T02:21:36;22.10;;;17.50;;
39176;SDS011;24904;52.208;21.192;2022-07-23T02:26:40;20.30;;;16.10;;
39176;SDS011;24904;52.208;21.192;2022-07-23T02:31:43;20.50;;;17.30;;
39176;SDS011;24904;52.208;21.192;2022-07-23T02:36:47;20.20;;;17.40;;
39176;SDS011;24904;52.208;21.192;2022-07-23T02:41:51;24.90;;;19.00;;
39176;SDS011;24904;52.208;21.192;2022-07-23T02:46:54;24.90;;;18.10;;
39176;SDS011;24904;52.208;21.192;2022-07-23T02:51:57;25.90;;;16.30;;
39176;SDS011;24904;52.208;21.192;2022-07-23T02:57:01;25.70;;;17.60;;
39176;SDS011;24904;52.208;21.192;2022-07-23T03:02:05;24.10;;;17.00;;
39176;SDS011;24904;52.208;21.192;2022-07-23T03:07:08;18.50;;;16.30;;
39176;SDS011;24904;52.208;21.192;2022-07-23T03:12:11;19.80;;;17.10;;
39176;SDS011;24904;52.208;21.192;2022-07-23T03:17:14;18.60;;;15.10;;
39176;SDS011;24904;52.208;21.192;2022-07-23T03:22:17;18.40;;;16.40;;
39176;SDS011;24904;52.208;21.192;2022-07-23T03:27:20;25.70;;;17.30;;
39176;SDS011;24904;52.208;21.192;2022-07-23T03:32:25;22.60;;;17.40;;
39176;SDS011;24904;52.208;21.192;2022-07-23T03:37:28;18.00;;;16.10;;
39176;SDS011;24904;52.208;21.192;2022-07-23T03:42:32;19.30;;;16.20;;
39176;SDS011;24904;52.208;21.192;2022-07-23T03:47:37;19.60;;;14.90;;
39176;SDS011;24904;52.208;21.192;2022-07-23T03:52:40;17.50;;;15.40;;
39176;SDS011;24904;52.208;21.192;2022-07-23T03:57:44;20.50;;;16.30;;
39176;SDS011;24904;52.208;21.192;2022-07-23T04:02:47;21.40;;;16.50;;
39176;SDS011;24904;52.208;21.192;2022-07-23T04:07:51;24.90;;;15.90;;
39176;SDS011;24904;52.208;21.192;2022-07-23T04:12:54;21.20;;;16.60;;
39176;SDS011;24904;52.208;21.192;2022-07-23T04:17:58;23.80;;;16.50;;
39176;SDS011;24904;52.208;21.192;2022-07-23T04:23:09;19.20;;;16.00;;
39176;SDS011;24904;52.208;21.192;2022-07-23T04:28:13;22.00;;;16.10;;
39176;SDS011;24904;52.208;21.192;2022-07-23T04:33:17;17.60;;;15.70;;
39176;SDS011;24904;52.208;21.192;2022-07-23T04:38:21;21.50;;;16.20;;
39176;SDS011;24904;52.208;21.192;2022-07-23T04:43:27;17.50;;;15.10;;
39176;SDS011;24904;52.208;21.192;2022-07-23T04:48:30;18.40;;;15.30;;
39176;SDS011;24904;52.208;21.192;2022-07-23T04:53:39;19.90;;;15.20;;
39176;SDS011;24904;52.208;21.192;2022-07-23T04:58:43;22.80;;;15.40;;
39176;SDS011;24904;52.208;21.192;2022-07-23T05:03:46;18.70;;;13.60;;
39176;SDS011;24904;52.208;21.192;2022-07-23T05:08:50;18.70;;;14.10;;
39176;SDS011;24904;52.208;21.192;2022-07-23T05:13:54;18.00;;;13.60;;
39176;SDS011;24904;52.208;21.192;2022-07-23T05:18:57;19.30;;;13.90;;
39176;SDS011;24904;52.208;21.192;2022-07-23T05:24:00;17.60;;;13.20;;
39176;SDS011;24904;52.208;21.192;2022-07-23T05:29:04;21.10;;;14.10;;
39176;SDS011;24904;52.208;21.192;2022-07-23T05:34:07;20.40;;;12.30;;
39176;SDS011;24904;52.208;21.192;2022-07-23T05:39:11;16.60;;;12.30;;
39176;SDS011;24904;52.208;21.192;2022-07-23T05:44:14;18.30;;;10.70;;
39176;SDS011;24904;52.208;21.192;2022-07-23T05:49:18;17.90;;;11.70;;
39176;SDS011;24904;52.208;21.192;2022-07-23T05:54:51;16.00;;;11.40;;
39176;SDS011;24904;52.208;21.192;2022-07-23T05:59:54;21.20;;;11.50;;
39176;SDS011;24904;52.208;21.192;2022-07-23T06:04:57;16.40;;;11.20;;
39176;SDS011;24904;52.208;21.192;2022-07-23T06:10:04;14.40;;;9.90;;
39176;SDS011;24904;52.208;21.192;2022-07-23T06:15:10;20.60;;;11.30;;
39176;SDS011;24904;52.208;21.192;2022-07-23T06:20:14;15.50;;;9.80;;
39176;SDS011;24904;52.208;21.192;2022-07-23T06:25:17;15.00;;;10.10;;
39176;SDS011;24904;52.208;21.192;2022-07-23T06:30:21;15.30;;;10.40;;
39176;SDS011;24904;52.208;21.192;2022-07-23T06:35:24;15.10;;;9.60;;
39176;SDS011;24904;52.208;21.192;2022-07-23T06:40:28;14.50;;;10.20;;
39176;SDS011;24904;52.208;21.192;2022-07-23T06:45:31;18.10;;;9.70;;
39176;SDS011;24904;52.208;21.192;2022-07-23T06:50:34;16.40;;;9.10;;
39176;SDS011;24904;52.208;21.192;2022-07-23T06:55:37;12.80;;;8.50;;
39176;SDS011;24904;52.208;21.192;2022-07-23T07:00:41;15.10;;;9.00;;
39176;SDS011;24904;52.208;21.192;2022-07-23T07:05:44;14.80;;;8.20;;
39176;SDS011;24904;52.208;21.192;2022-07-23T07:10:47;14.60;;;8.00;;
39176;SDS011;24904;52.208;21.192;2022-07-23T07:15:50;10.70;;;8.20;;
39176;SDS011;24904;52.208;21.192;2022-07-23T07:20:53;11.70;;;8.50;;
39176;SDS011;24904;52.208;21.192;2022-07-23T07:25:56;8.90;;;8.00;;
39176;SDS011;24904;52.208;21.192;2022-07-23T07:30:59;11.20;;;8.00;;
39176;SDS011;24904;52.208;21.192;2022-07-23T07:36:03;12.20;;;8.20;;
39176;SDS011;24904;52.208;21.192;2022-07-23T07:41:07;14.50;;;7.80;;
39176;SDS011;24904;52.208;21.192;2022-07-23T07:46:11;11.10;;;8.20;;
39176;SDS011;24904;52.208;21.192;2022-07-23T07:51:14;10.20;;;7.30;;
39176;SDS011;24904;52.208;21.192;2022-07-23T07:56:17;14.30;;;8.20;;
39176;SDS011;24904;52.208;21.192;2022-07-23T08:01:20;9.70;;;7.10;;
39176;SDS011;24904;52.208;21.192;2022-07-23T08:06:23;11.20;;;6.90;;
39176;SDS011;24904;52.208;21.192;2022-07-23T08:11:27;10.70;;;7.10;;
39176;SDS011;24904;52.208;21.192;2022-07-23T08:16:30;8.60;;;6.90;;
39176;SDS011;24904;52.208;21.192;2022-07-23T08:21:33;12.00;;;7.00;;
39176;SDS011;24904;52.208;21.192;2022-07-23T08:26:36;12.70;;;6.80;;
39176;SDS011;24904;52.208;21.192;2022-07-23T08:31:39;14.30;;;7.50;;
39176;SDS011;24904;52.208;21.192;2022-07-23T08:36:42;10.20;;;7.30;;
39176;SDS011;24904;52.208;21.192;2022-07-23T08:41:45;13.80;;;7.20;;
39176;SDS011;24904;52.208;21.192;2022-07-23T08:46:49;10.20;;;7.60;;
39176;SDS011;24904;52.208;21.192;2022-07-23T08:51:52;9.60;;;7.70;;
39176;SDS011;24904;52.208;21.192;2022-07-23T08:56:56;9.90;;;6.60;;
39176;SDS011;24904;52.208;21.192;2022-07-23T09:01:59;10.40;;;6.70;;
39176;SDS011;24904;52.208;21.192;2022-07-23T09:07:02;10.70;;;7.40;;
39176;SDS011;24904;52.208;21.192;2022-07-23T09:12:07;9.70;;;6.40;;
39176;SDS011;24904;52.208;21.192;2022-07-23T09:17:12;12.90;;;7.10;;
39176;SDS011;24904;52.208;21.192;2022-07-23T09:22:19;8.10;;;6.00;;
39176;SDS011;24904;52.208;21.192;2022-07-23T09:27:23;12.00;;;6.60;;
39176;SDS011;24904;52.208;21.192;2022-07-23T09:33:09;7.60;;;6.90;;
39176;SDS011;24904;52.208;21.192;2022-07-23T09:38:14;11.80;;;6.60;;
39176;SDS011;24904;52.208;21.192;2022-07-23T09:43:26;8.40;;;5.90;;
39176;SDS011;24904;52.208;21.192;2022-07-23T09:48:30;11.90;;;6.80;;
39176;SDS011;24904;52.208;21.192;2022-07-23T09:53:33;7.20;;;6.10;;
39176;SDS011;24904;52.208;21.192;2022-07-23T09:58:37;8.50;;;5.80;;
39176;SDS011;24904;52.208;21.192;2022-07-23T10:03:47;7.60;;;6.20;;
39176;SDS011;24904;52.208;21.192;2022-07-23T10:09:09;8.90;;;6.60;;
39176;SDS011;24904;52.208;21.192;2022-07-23T10:14:43;7.80;;;5.70;;
39176;SDS011;24904;52.208;21.192;2022-07-23T10:19:47;9.40;;;6.20;;
39176;SDS011;24904;52.208;21.192;2022-07-23T10:24:52;9.10;;;5.90;;
39176;SDS011;24904;52.208;21.192;2022-07-23T10:30:02;7.60;;;5.80;;
39176;SDS011;24904;52.208;21.192;2022-07-23T10:40:15;10.70;;;6.00;;
39176;SDS011;24904;52.208;21.192;2022-07-23T10:45:23;8.60;;;6.20;;
39176;SDS011;24904;52.208;21.192;2022-07-23T10:50:29;13.20;;;5.80;;
39176;SDS011;24904;52.208;21.192;2022-07-23T10:55:42;12.00;;;6.60;;
39176;SDS011;24904;52.208;21.192;2022-07-23T11:00:48;7.50;;;6.00;;
39176;SDS011;24904;52.208;21.192;2022-07-23T11:05:51;11.20;;;6.40;;
39176;SDS011;24904;52.208;21.192;2022-07-23T11:10:55;8.40;;;5.40;;
39176;SDS011;24904;52.208;21.192;2022-07-23T11:16:17;8.40;;;5.60;;
39176;SDS011;24904;52.208;21.192;2022-07-23T11:26:59;9.70;;;6.50;;
39176;SDS011;24904;52.208;21.192;2022-07-23T11:32:06;10.20;;;5.80;;
39176;SDS011;24904;52.208;21.192;2022-07-23T11:37:29;7.80;;;6.20;;
39176;SDS011;24904;52.208;21.192;2022-07-23T11:42:39;14.80;;;5.50;;
39176;SDS011;24904;52.208;21.192;2022-07-23T11:47:52;7.80;;;5.70;;
39176;SDS011;24904;52.208;21.192;2022-07-23T11:52:55;7.30;;;6.10;;
39176;SDS011;24904;52.208;21.192;2022-07-23T11:57:58;8.00;;;6.30;;
39176;SDS011;24904;52.208;21.192;2022-07-23T12:03:02;8.60;;;6.90;;
39176;SDS011;24904;52.208;21.192;2022-07-23T12:08:07;9.40;;;6.30;;
39176;SDS011;24904;52.208;21.192;2022-07-23T12:13:12;10.40;;;6.50;;
39176;SDS011;24904;52.208;21.192;2022-07-23T12:18:18;12.70;;;7.10;;
39176;SDS011;24904;52.208;21.192;2022-07-23T12:23:23;9.90;;;6.50;;
39176;SDS011;24904;52.208;21.192;2022-07-23T12:28:28;11.00;;;6.30;;
39176;SDS011;24904;52.208;21.192;2022-07-23T12:33:34;9.50;;;6.30;;
39176;SDS011;24904;52.208;21.192;2022-07-23T12:38:40;7.30;;;6.40;;
39176;SDS011;24904;52.208;21.192;2022-07-23T12:43:45;10.90;;;7.10;;
39176;SDS011;24904;52.208;21.192;2022-07-23T12:48:50;8.40;;;6.20;;
39176;SDS011;24904;52.208;21.192;2022-07-23T12:53:55;11.50;;;6.90;;
39176;SDS011;24904;52.208;21.192;2022-07-23T12:59:04;10.00;;;6.60;;
39176;SDS011;24904;52.208;21.192;2022-07-23T13:04:09;11.40;;;6.80;;
39176;SDS011;24904;52.208;21.192;2022-07-23T13:09:14;10.70;;;7.10;;
39176;SDS011;24904;52.208;21.192;2022-07-23T13:14:19;10.00;;;6.70;;
39176;SDS011;24904;52.208;21.192;2022-07-23T13:19:24;7.90;;;6.60;;
39176;SDS011;24904;52.208;21.192;2022-07-23T13:24:27;12.00;;;7.00;;
39176;SDS011;24904;52.208;21.192;2022-07-23T13:29:30;9.40;;;6.90;;
39176;SDS011;24904;52.208;21.192;2022-07-23T13:34:33;9.70;;;6.00;;
39176;SDS011;24904;52.208;21.192;2022-07-23T13:39:37;12.20;;;7.30;;
39176;SDS011;24904;52.208;21.192;2022-07-23T13:44:40;7.80;;;6.50;;
39176;SDS011;24904;52.208;21.192;2022-07-23T13:49:43;9.10;;;6.90;;
39176;SDS011;24904;52.208;21.192;2022-07-23T13:54:46;9.00;;;6.60;;
39176;SDS011;24904;52.208;21.192;2022-07-23T13:59:49;8.70;;;6.50;;
39176;SDS011;24904;52.208;21.192;2022-07-23T14:04:52;9.20;;;6.60;;
39176;SDS011;24904;52.208;21.192;2022-07-23T14:09:55;12.90;;;6.90;;
39176;SDS011;24904;52.208;21.192;2022-07-23T14:14:58;18.60;;;7.50;;
39176;SDS011;24904;52.208;21.192;2022-07-23T14:20:02;16.20;;;7.60;;
39176;SDS011;24904;52.208;21.192;2022-07-23T14:25:08;9.90;;;7.20;;
39176;SDS011;24904;52.208;21.192;2022-07-23T14:30:12;7.50;;;6.20;;
39176;SDS011;24904;52.208;21.192;2022-07-23T14:35:16;15.40;;;6.80;;
39176;SDS011;24904;52.208;21.192;2022-07-23T14:40:20;10.30;;;7.40;;
39176;SDS011;24904;52.208;21.192;2022-07-23T14:45:23;11.00;;;7.20;;
39176;SDS011;24904;52.208;21.192;2022-07-23T14:50:27;9.90;;;7.30;;
39176;SDS011;24904;52.208;21.192;2022-07-23T14:55:31;11.20;;;7.30;;
39176;SDS011;24904;52.208;21.192;2022-07-23T15:00:34;36.20;;;8.00;;
39176;SDS011;24904;52.208;21.192;2022-07-23T15:05:37;33.10;;;6.00;;
39176;SDS011;24904;52.208;21.192;2022-07-23T15:10:40;19.30;;;5.70;;
39176;SDS011;24904;52.208;21.192;2022-07-23T15:15:44;11.20;;;5.10;;
39176;SDS011;24904;52.208;21.192;2022-07-23T15:20:47;15.10;;;5.10;;
39176;SDS011;24904;52.208;21.192;2022-07-23T15:25:50;12.20;;;5.50;;
39176;SDS011;24904;52.208;21.192;2022-07-23T15:30:54;13.00;;;5.90;;
39176;SDS011;24904;52.208;21.192;2022-07-23T15:35:57;8.40;;;6.20;;
39176;SDS011;24904;52.208;21.192;2022-07-23T15:41:00;11.70;;;5.90;;
39176;SDS011;24904;52.208;21.192;2022-07-23T15:46:05;9.80;;;6.10;;
39176;SDS011;24904;52.208;21.192;2022-07-23T15:51:08;8.70;;;6.50;;
39176;SDS011;24904;52.208;21.192;2022-07-23T15:56:11;11.10;;;6.70;;
39176;SDS011;24904;52.208;21.192;2022-07-23T16:01:14;9.60;;;7.40;;
39176;SDS011;24904;52.208;21.192;2022-07-23T16:06:18;12.70;;;8.40;;
39176;SDS011;24904;52.208;21.192;2022-07-23T16:11:21;13.20;;;7.90;;
39176;SDS011;24904;52.208;21.192;2022-07-23T16:16:24;8.90;;;7.30;;
39176;SDS011;24904;52.208;21.192;2022-07-23T16:21:28;8.60;;;6.60;;
39176;SDS011;24904;52.208;21.192;2022-07-23T16:26:31;9.70;;;6.90;;
39176;SDS011;24904;52.208;21.192;2022-07-23T16:31:34;10.00;;;6.60;;
39176;SDS011;24904;52.208;21.192;2022-07-23T16:36:37;8.40;;;6.20;;
39176;SDS011;24904;52.208;21.192;2022-07-23T16:41:41;10.40;;;6.60;;
39176;SDS011;24904;52.208;21.192;2022-07-23T16:46:44;10.40;;;6.40;;
39176;SDS011;24904;52.208;21.192;2022-07-23T16:51:47;11.50;;;6.60;;
39176;SDS011;24904;52.208;21.192;2022-07-23T16:56:52;7.60;;;5.60;;
39176;SDS011;24904;52.208;21.192;2022-07-23T17:01:55;7.20;;;4.80;;
39176;SDS011;24904;52.208;21.192;2022-07-23T17:06:59;5.60;;;4.30;;
39176;SDS011;24904;52.208;21.192;2022-07-23T17:12:06;6.30;;;4.60;;
39176;SDS011;24904;52.208;21.192;2022-07-23T17:17:10;8.60;;;4.70;;
39176;SDS011;24904;52.208;21.192;2022-07-23T17:22:13;6.70;;;4.70;;
39176;SDS011;24904;52.208;21.192;2022-07-23T17:27:16;6.90;;;5.40;;
39176;SDS011;24904;52.208;21.192;2022-07-23T17:32:19;7.10;;;4.90;;
39176;SDS011;24904;52.208;21.192;2022-07-23T17:37:23;12.80;;;5.90;;
39176;SDS011;24904;52.208;21.192;2022-07-23T17:42:26;6.20;;;5.20;;
39176;SDS011;24904;52.208;21.192;2022-07-23T17:47:29;9.30;;;5.80;;
39176;SDS011;24904;52.208;21.192;2022-07-23T17:52:32;6.50;;;5.00;;
39176;SDS011;24904;52.208;21.192;2022-07-23T17:57:44;6.90;;;5.70;;
39176;SDS011;24904;52.208;21.192;2022-07-23T18:02:47;5.60;;;4.70;;
39176;SDS011;24904;52.208;21.192;2022-07-23T18:07:50;8.50;;;5.10;;
39176;SDS011;24904;52.208;21.192;2022-07-23T18:12:53;7.10;;;5.30;;
39176;SDS011;24904;52.208;21.192;2022-07-23T18:17:56;11.20;;;5.70;;
39176;SDS011;24904;52.208;21.192;2022-07-23T18:23:00;8.30;;;5.90;;
39176;SDS011;24904;52.208;21.192;2022-07-23T18:28:03;9.00;;;7.30;;
39176;SDS011;24904;52.208;21.192;2022-07-23T18:33:07;8.80;;;7.00;;
39176;SDS011;24904;52.208;21.192;2022-07-23T18:38:10;9.60;;;6.40;;
39176;SDS011;24904;52.208;21.192;2022-07-23T18:43:13;9.10;;;6.20;;
39176;SDS011;24904;52.208;21.192;2022-07-23T18:48:16;7.90;;;6.30;;
39176;SDS011;24904;52.208;21.192;2022-07-23T18:53:20;12.40;;;7.30;;
39176;SDS011;24904;52.208;21.192;2022-07-23T18:58:24;9.60;;;6.80;;
39176;SDS011;24904;52.208;21.192;2022-07-23T19:03:27;11.90;;;7.50;;
39176;SDS011;24904;52.208;21.192;2022-07-23T19:08:30;8.20;;;6.90;;
39176;SDS011;24904;52.208;21.192;2022-07-23T19:13:33;8.40;;;7.10;;
39176;SDS011;24904;52.208;21.192;2022-07-23T19:18:37;10.00;;;7.60;;
39176;SDS011;24904;52.208;21.192;2022-07-23T19:23:40;9.60;;;7.60;;
39176;SDS011;24904;52.208;21.192;2022-07-23T19:28:43;9.70;;;7.30;;
39176;SDS011;24904;52.208;21.192;2022-07-23T19:33:48;11.60;;;9.30;;
39176;SDS011;24904;52.208;21.192;2022-07-23T19:38:51;10.90;;;8.70;;
39176;SDS011;24904;52.208;21.192;2022-07-23T19:43:54;11.20;;;8.90;;
39176;SDS011;24904;52.208;21.192;2022-07-23T19:48:57;12.00;;;8.90;;
39176;SDS011;24904;52.208;21.192;2022-07-23T19:54:00;10.20;;;9.00;;
39176;SDS011;24904;52.208;21.192;2022-07-23T19:59:03;10.80;;;9.70;;
39176;SDS011;24904;52.208;21.192;2022-07-23T20:04:07;10.20;;;9.10;;
39176;SDS011;24904;52.208;21.192;2022-07-23T20:09:10;12.60;;;9.50;;
39176;SDS011;24904;52.208;21.192;2022-07-23T20:14:13;13.50;;;9.50;;
39176;SDS011;24904;52.208;21.192;2022-07-23T20:19:16;10.50;;;9.40;;
39176;SDS011;24904;52.208;21.192;2022-07-23T20:24:19;15.30;;;11.30;;
39176;SDS011;24904;52.208;21.192;2022-07-23T20:29:23;14.70;;;12.70;;
39176;SDS011;24904;52.208;21.192;2022-07-23T20:34:26;19.00;;;13.40;;
39176;SDS011;24904;52.208;21.192;2022-07-23T20:39:29;17.90;;;15.30;;
39176;SDS011;24904;52.208;21.192;2022-07-23T20:44:32;18.90;;;15.90;;
39176;SDS011;24904;52.208;21.192;2022-07-23T20:49:35;22.30;;;17.00;;
39176;SDS011;24904;52.208;21.192;2022-07-23T20:54:38;20.90;;;15.90;;
39176;SDS011;24904;52.208;21.192;2022-07-23T20:59:41;20.00;;;14.70;;
39176;SDS011;24904;52.208;21.192;2022-07-23T21:04:44;17.50;;;14.50;;
39176;SDS011;24904;52.208;21.192;2022-07-23T21:09:50;16.20;;;12.30;;
39176;SDS011;24904;52.208;21.192;2022-07-23T21:14:53;16.20;;;12.70;;
39176;SDS011;24904;52.208;21.192;2022-07-23T21:19:57;18.00;;;12.10;;
39176;SDS011;24904;52.208;21.192;2022-07-23T21:25:01;13.30;;;11.50;;
39176;SDS011;24904;52.208;21.192;2022-07-23T21:30:05;13.70;;;11.90;;
39176;SDS011;24904;52.208;21.192;2022-07-23T21:35:10;13.90;;;12.00;;
39176;SDS011;24904;52.208;21.192;2022-07-23T21:40:13;14.00;;;11.90;;
39176;SDS011;24904;52.208;21.192;2022-07-23T21:45:16;16.40;;;12.90;;
39176;SDS011;24904;52.208;21.192;2022-07-23T21:50:20;18.40;;;13.20;;
39176;SDS011;24904;52.208;21.192;2022-07-23T21:55:23;16.70;;;13.50;;
39176;SDS011;24904;52.208;21.192;2022-07-23T22:00:29;16.50;;;13.50;;
39176;SDS011;24904;52.208;21.192;2022-07-23T22:05:34;17.80;;;12.80;;
39176;SDS011;24904;52.208;21.192;2022-07-23T22:10:37;19.10;;;12.70;;
39176;SDS011;24904;52.208;21.192;2022-07-23T22:15:40;19.90;;;14.90;;
39176;SDS011;24904;52.208;21.192;2022-07-23T22:20:44;16.40;;;13.70;;
39176;SDS011;24904;52.208;21.192;2022-07-23T22:25:47;17.60;;;14.50;;
39176;SDS011;24904;52.208;21.192;2022-07-23T22:30:51;16.90;;;13.80;;
39176;SDS011;24904;52.208;21.192;2022-07-23T22:35:54;20.90;;;14.80;;
39176;SDS011;24904;52.208;21.192;2022-07-23T22:40:57;17.30;;;15.40;;
39176;SDS011;24904;52.208;21.192;2022-07-23T22:46:00;19.90;;;16.50;;
39176;SDS011;24904;52.208;21.192;2022-07-23T22:51:03;18.20;;;14.40;;
39176;SDS011;24904;52.208;21.192;2022-07-23T22:56:07;23.70;;;15.50;;
39176;SDS011;24904;52.208;21.192;2022-07-23T23:01:10;18.70;;;15.30;;
39176;SDS011;24904;52.208;21.192;2022-07-23T23:06:13;16.40;;;14.70;;
39176;SDS011;24904;52.208;21.192;2022-07-23T23:11:16;16.70;;;14.80;;
39176;SDS011;24904;52.208;21.192;2022-07-23T23:16:19;18.60;;;15.10;;
39176;SDS011;24904;52.208;21.192;2022-07-23T23:21:22;18.20;;;15.60;;
39176;SDS011;24904;52.208;21.192;2022-07-23T23:26:26;18.20;;;15.70;;
39176;SDS011;24904;52.208;21.192;2022-07-23T23:31:29;18.30;;;15.10;;
39176;SDS011;24904;52.208;21.192;2022-07-23T23:36:33;20.90;;;15.70;;
39176;SDS011;24904;52.208;21.192;2022-07-23T23:41:36;21.70;;;15.90;;
39176;SDS011;24904;52.208;21.192;2022-07-23T23:46:39;17.40;;;15.60;;
39176;SDS011;24904;52.208;21.192;2022-07-23T23:51:42;17.80;;;15.40;;
39176;SDS011;24904;52.208;21.192;2022-07-23T23:56:45;20.70;;;15.90;;
